Time,TemperatureF,DewpointF,PressureIn,WindDirection,WindDirectionDegrees,WindSpeedMPH,WindSpeedGustMPH,Humidity,HourlyPrecipIn,Conditions,Clouds,dailyrainin,SoftwareType,DateUTC
2013-02-14 00:01:00,22.0,17.0,-100.00,SSE,165,3.0,5.0,80,0.00,,,-99.99,,2013-02-14 07:01:00,
2013-02-14 00:11:00,21.0,16.0,-100.00,SSE,155,3.0,4.0,80,0.00,,,-99.99,,2013-02-14 07:11:00,
2013-02-14 00:21:00,21.0,16.0,-100.00,SSE,155,3.0,4.0,80,0.00,,,-99.99,,2013-02-14 07:21:00,
2013-02-14 00:31:00,22.0,17.0,-100.00,SSE,155,5.0,7.0,80,0.00,,,-99.99,,2013-02-14 07:31:00,
2013-02-14 00:41:00,22.0,17.0,-100.00,SSE,155,5.0,7.0,80,0.00,,,-99.99,,2013-02-14 07:41:00,
2013-02-14 00:51:00,22.0,17.0,-100.00,SSE,160,4.0,10.0,80,0.00,,,-99.99,,2013-02-14 07:51:00,
2013-02-14 01:01:00,22.0,17.0,-100.00,East,85,3.0,8.0,80,0.00,,,-99.99,,2013-02-14 08:01:00,
2013-02-14 01:11:00,22.0,17.0,-100.00,SSE,165,4.0,7.0,80,0.00,,,-99.99,,2013-02-14 08:11:00,
2013-02-14 01:21:00,22.0,17.0,-100.00,SSE,160,4.0,8.0,80,0.00,,,-99.99,,2013-02-14 08:21:00,
2013-02-14 01:32:00,21.0,16.0,-100.00,SSE,160,6.0,9.0,79,0.00,,,-99.99,,2013-02-14 08:32:00,
2013-02-14 01:43:00,21.0,16.0,-100.00,South,170,5.0,9.0,79,0.00,,,-99.99,,2013-02-14 08:43:00,
2013-02-14 01:52:00,21.0,16.0,-100.00,South,170,3.0,7.0,79,0.00,,,-99.99,,2013-02-14 08:52:00,
2013-02-14 02:01:00,21.0,16.0,-100.00,SSE,150,5.0,8.0,80,0.00,,,-99.99,,2013-02-14 09:01:00,
2013-02-14 02:11:00,21.0,16.0,-100.00,SSE,160,4.0,8.0,80,0.00,,,-99.99,,2013-02-14 09:11:00,
2013-02-14 02:21:00,21.0,16.0,-100.00,South,170,5.0,7.0,80,0.00,,,-99.99,,2013-02-14 09:21:00,
2013-02-14 02:31:00,20.0,15.0,-100.00,SSE,150,6.0,8.0,80,0.00,,,-99.99,,2013-02-14 09:31:00,
2013-02-14 02:42:00,20.0,15.0,-100.00,SSE,165,4.0,7.0,80,0.00,,,-99.99,,2013-02-14 09:42:00,
2013-02-14 02:51:00,20.0,15.0,-100.00,SSE,160,7.0,9.0,80,0.00,,,-99.99,,2013-02-14 09:51:00,
2013-02-14 03:02:00,20.0,15.0,-100.00,SSE,165,6.0,9.0,80,0.00,,,-99.99,,2013-02-14 10:02:00,
2013-02-14 03:11:00,19.0,14.0,-100.00,SSE,165,6.0,8.0,80,0.00,,,-99.99,,2013-02-14 10:11:00,
2013-02-14 03:21:00,19.0,15.0,-100.00,South,170,4.0,8.0,81,0.00,,,-99.99,,2013-02-14 10:21:00,
2013-02-14 03:31:00,20.0,15.0,-100.00,SSE,160,5.0,7.0,81,0.00,,,-99.99,,2013-02-14 10:31:00,
2013-02-14 03:42:00,20.0,15.0,-100.00,SSE,155,6.0,7.0,81,0.00,,,-99.99,,2013-02-14 10:42:00,
2013-02-14 03:52:00,20.0,15.0,-100.00,South,175,4.0,9.0,81,0.00,,,-99.99,,2013-02-14 10:52:00,
2013-02-14 04:02:00,20.0,15.0,-100.00,South,185,6.0,8.0,81,0.00,,,-99.99,,2013-02-14 11:02:00,
2013-02-14 04:11:00,20.0,15.0,-100.00,SSW,195,3.0,7.0,81,0.00,,,-99.99,,2013-02-14 11:11:00,
2013-02-14 04:21:00,20.0,16.0,-100.00,South,175,3.0,9.0,81,0.00,,,-99.99,,2013-02-14 11:21:00,
2013-02-14 04:32:00,20.0,16.0,-100.00,SSE,155,4.0,7.0,81,0.00,,,-99.99,,2013-02-14 11:32:00,
2013-02-14 04:42:00,21.0,16.0,-100.00,South,170,4.0,7.0,81,0.00,,,-99.99,,2013-02-14 11:42:00,
2013-02-14 04:52:00,21.0,16.0,-100.00,SE,135,1.0,7.0,81,0.00,,,-99.99,,2013-02-14 11:52:00,
2013-02-14 05:02:00,21.0,16.0,-100.00,South,180,3.0,6.0,81,0.00,,,-99.99,,2013-02-14 12:02:00,
2013-02-14 05:12:00,21.0,17.0,-100.00,SSE,160,4.0,5.0,81,0.00,,,-99.99,,2013-02-14 12:12:00,
2013-02-14 05:22:00,22.0,17.0,-100.00,SE,145,1.0,5.0,81,0.00,,,-99.99,,2013-02-14 12:22:00,
2013-02-14 05:32:00,21.0,17.0,-100.00,SSE,150,3.0,4.0,81,0.00,,,-99.99,,2013-02-14 12:32:00,
2013-02-14 05:42:00,21.0,17.0,-100.00,SSE,155,2.0,3.0,81,0.00,,,-99.99,,2013-02-14 12:42:00,
2013-02-14 05:53:00,22.0,17.0,-100.00,South,175,2.0,4.0,81,0.00,,,-99.99,,2013-02-14 12:53:00,
2013-02-14 06:01:00,22.0,17.0,-100.00,SSE,165,0.0,0.0,81,0.00,,,-99.99,,2013-02-14 13:01:00,
2013-02-14 06:11:00,22.0,17.0,-100.00,WSW,250,0.0,0.0,82,0.00,,,-99.99,,2013-02-14 13:11:00,
2013-02-14 06:21:00,22.0,18.0,-100.00,ENE,75,0.0,0.0,82,0.00,,,-99.99,,2013-02-14 13:21:00,
2013-02-14 06:31:00,22.0,18.0,-100.00,SW,235,0.0,0.0,83,0.00,,,-99.99,,2013-02-14 13:31:00,
2013-02-14 06:41:00,22.0,18.0,-100.00,South,190,0.0,0.0,84,0.00,,,-99.99,,2013-02-14 13:41:00,
2013-02-14 06:51:00,22.0,18.0,-100.00,SSE,165,3.0,4.0,85,0.00,,,-99.99,,2013-02-14 13:51:00,
2013-02-14 07:01:00,22.0,18.0,-100.00,South,170,2.0,4.0,85,0.00,,,-99.99,,2013-02-14 14:01:00,
2013-02-14 07:11:00,22.0,19.0,-100.00,SSE,155,2.0,4.0,86,0.00,,,-99.99,,2013-02-14 14:11:00,
2013-02-14 07:21:00,22.0,19.0,-100.00,South,185,2.0,3.0,87,0.00,,,-99.99,,2013-02-14 14:21:00,
2013-02-14 07:31:00,22.0,19.0,-100.00,SSE,150,1.0,2.0,88,0.00,,,-99.99,,2013-02-14 14:31:00,
2013-02-14 07:41:00,22.0,20.0,-100.00,SE,135,2.0,4.0,88,0.00,,,-99.99,,2013-02-14 14:41:00,
2013-02-14 07:52:00,23.0,20.0,-100.00,NE,45,1.0,2.0,89,0.00,,,-99.99,,2013-02-14 14:52:00,
2013-02-14 08:01:00,23.0,21.0,-100.00,ESE,110,1.0,3.0,90,0.00,,,-99.99,,2013-02-14 15:01:00,
2013-02-14 08:11:00,23.0,21.0,-100.00,South,170,0.0,0.0,90,0.00,,,-99.99,,2013-02-14 15:11:00,
2013-02-14 08:21:00,24.0,22.0,-100.00,East,85,0.0,0.0,90,0.00,,,-99.99,,2013-02-14 15:21:00,
2013-02-14 08:32:00,24.0,22.0,-100.00,SE,125,1.0,3.0,90,0.00,,,-99.99,,2013-02-14 15:32:00,
2013-02-14 08:41:00,24.0,22.0,-100.00,ESE,110,0.0,2.0,90,0.00,,,-99.99,,2013-02-14 15:41:00,
2013-02-14 08:52:00,25.0,23.0,-100.00,ESE,120,0.0,0.0,90,0.00,,,-99.99,,2013-02-14 15:52:00,
2013-02-14 09:01:00,25.0,23.0,-100.00,SSE,150,4.0,4.0,90,0.00,,,-99.99,,2013-02-14 16:01:00,
2013-02-14 09:11:00,25.0,23.0,-100.00,ENE,75,0.0,4.0,90,0.00,,,-99.99,,2013-02-14 16:11:00,
2013-02-14 09:21:00,26.0,24.0,-100.00,ESE,115,1.0,2.0,90,0.00,,,-99.99,,2013-02-14 16:21:00,
2013-02-14 09:32:00,27.0,24.0,-100.00,ESE,115,1.0,4.0,90,0.00,,,-99.99,,2013-02-14 16:32:00,
2013-02-14 09:41:00,27.0,24.0,-100.00,South,170,3.0,6.0,90,0.00,,,-99.99,,2013-02-14 16:41:00,
2013-02-14 09:51:00,30.0,28.0,-100.00,ENE,75,0.0,1.0,90,0.00,,,-99.99,,2013-02-14 16:51:00,
2013-02-14 10:01:00,32.0,29.0,-100.00,SSE,165,4.0,7.0,87,0.00,,,-99.99,,2013-02-14 17:01:00,
2013-02-14 10:11:00,30.0,25.0,-100.00,West,275,3.0,5.0,79,0.00,,,-99.99,,2013-02-14 17:11:00,
2013-02-14 10:21:00,31.0,24.0,-100.00,West,280,3.0,5.0,75,0.00,,,-99.99,,2013-02-14 17:21:00,
2013-02-14 10:31:00,32.0,24.0,-100.00,WNW,285,3.0,4.0,70,0.00,,,-99.99,,2013-02-14 17:31:00,
2013-02-14 10:42:00,33.0,23.0,-100.00,WNW,290,4.0,5.0,66,0.00,,,-99.99,,2013-02-14 17:42:00,
2013-02-14 10:52:00,32.0,21.0,-100.00,West,280,2.0,7.0,63,0.00,,,-99.99,,2013-02-14 17:52:00,
2013-02-14 11:01:00,33.0,22.0,-100.00,NW,325,4.0,9.0,61,0.00,,,-99.99,,2013-02-14 18:01:00,
2013-02-14 11:11:00,32.0,20.0,-100.00,WNW,285,6.0,9.0,60,0.00,,,-99.99,,2013-02-14 18:11:00,
2013-02-14 11:22:00,32.0,20.0,-100.00,West,280,9.0,12.0,60,0.00,,,-99.99,,2013-02-14 18:22:00,
2013-02-14 11:32:00,31.0,19.0,-100.00,WNW,285,13.0,17.0,59,0.00,,,-99.99,,2013-02-14 18:32:00,
2013-02-14 11:42:00,31.0,19.0,-100.00,West,280,11.0,19.0,59,0.00,,,-99.99,,2013-02-14 18:42:00,
2013-02-14 11:51:00,33.0,20.0,-100.00,WNW,285,13.0,18.0,58,0.00,,,-99.99,,2013-02-14 18:51:00,
2013-02-14 12:02:00,34.0,20.0,-100.00,WNW,300,9.0,17.0,56,0.00,,,-99.99,,2013-02-14 19:02:00,
2013-02-14 12:11:00,34.0,20.0,-100.00,WNW,295,7.0,16.0,56,0.00,,,-99.99,,2013-02-14 19:11:00,
2013-02-14 12:21:00,34.0,20.0,-100.00,WNW,290,16.0,20.0,56,0.00,,,-99.99,,2013-02-14 19:21:00,
2013-02-14 12:31:00,34.0,20.0,-100.00,WNW,300,11.0,17.0,55,0.00,,,-99.99,,2013-02-14 19:31:00,
2013-02-14 12:41:00,35.0,20.0,-100.00,WNW,290,9.0,17.0,54,0.00,,,-99.99,,2013-02-14 19:41:00,
2013-02-14 12:51:00,34.0,19.0,-100.00,WNW,285,9.0,16.0,54,0.00,,,-99.99,,2013-02-14 19:51:00,
2013-02-14 13:01:00,34.0,20.0,-100.00,West,280,9.0,17.0,54,0.00,,,-99.99,,2013-02-14 20:01:00,
2013-02-14 13:11:00,35.0,19.0,-100.00,WNW,285,11.0,16.0,53,0.00,,,-99.99,,2013-02-14 20:11:00,
2013-02-14 13:21:00,35.0,19.0,-100.00,WNW,290,8.0,15.0,52,0.00,,,-99.99,,2013-02-14 20:21:00,
2013-02-14 13:31:00,35.0,19.0,-100.00,WNW,285,7.0,12.0,51,0.00,,,-99.99,,2013-02-14 20:31:00,
2013-02-14 13:41:00,35.0,18.0,-100.00,West,280,9.0,14.0,50,0.00,,,-99.99,,2013-02-14 20:41:00,
2013-02-14 13:52:00,34.0,17.0,-100.00,WNW,290,12.0,17.0,50,0.00,,,-99.99,,2013-02-14 20:52:00,
2013-02-14 14:02:00,34.0,17.0,-100.00,WNW,290,12.0,17.0,50,0.00,,,-99.99,,2013-02-14 21:02:00,
2013-02-14 14:11:00,35.0,17.0,-100.00,WNW,295,10.0,20.0,48,0.00,,,-99.99,,2013-02-14 21:11:00,
2013-02-14 14:21:00,35.0,17.0,-100.00,West,280,12.0,21.0,46,0.00,,,-99.99,,2013-02-14 21:21:00,
2013-02-14 14:31:00,35.0,16.0,-100.00,WNW,295,11.0,19.0,45,0.00,,,-99.99,,2013-02-14 21:31:00,
2013-02-14 14:42:00,36.0,16.0,-100.00,WNW,295,11.0,17.0,44,0.00,,,-99.99,,2013-02-14 21:42:00,
2013-02-14 14:51:00,34.0,15.0,-100.00,West,280,11.0,17.0,44,0.00,,,-99.99,,2013-02-14 21:51:00,
2013-02-14 15:02:00,35.0,16.0,-100.00,West,275,8.0,15.0,44,0.00,,,-99.99,,2013-02-14 22:02:00,
2013-02-14 15:11:00,36.0,17.0,-100.00,NW,310,9.0,17.0,44,0.00,,,-99.99,,2013-02-14 22:11:00,
2013-02-14 15:21:00,36.0,15.0,-100.00,WSW,250,6.0,25.0,43,0.00,,,-99.99,,2013-02-14 22:21:00,
2013-02-14 15:31:00,36.0,16.0,-100.00,WSW,255,4.0,9.0,42,0.00,,,-99.99,,2013-02-14 22:31:00,
2013-02-14 15:42:00,35.0,13.0,-100.00,WNW,285,10.0,16.0,41,0.00,,,-99.99,,2013-02-14 22:42:00,
2013-02-14 15:51:00,35.0,13.0,-100.00,WSW,245,2.0,16.0,41,0.00,,,-99.99,,2013-02-14 22:51:00,
2013-02-14 16:01:00,35.0,14.0,-100.00,WNW,285,11.0,16.0,41,0.00,,,-99.99,,2013-02-14 23:01:00,
2013-02-14 16:11:00,35.0,15.0,-100.00,West,270,10.0,17.0,43,0.00,,,-99.99,,2013-02-14 23:11:00,
2013-02-14 16:21:00,34.0,15.0,-100.00,WNW,285,3.0,15.0,45,0.00,,,-99.99,,2013-02-14 23:21:00,
2013-02-14 16:32:00,33.0,15.0,-100.00,WSW,240,6.0,11.0,47,0.00,,,-99.99,,2013-02-14 23:32:00,
2013-02-14 16:41:00,32.0,14.0,-100.00,WSW,240,7.0,14.0,47,0.00,,,-99.99,,2013-02-14 23:41:00,
2013-02-14 16:52:00,32.0,14.0,-100.00,West,275,6.0,12.0,47,0.00,,,-99.99,,2013-02-14 23:52:00,
2013-02-14 17:01:00,31.0,14.0,-100.00,SSW,210,4.0,11.0,48,0.00,,,-99.99,,2013-02-15 00:01:00,
2013-02-14 17:11:00,31.0,14.0,-100.00,South,190,6.0,10.0,48,0.00,,,-99.99,,2013-02-15 00:11:00,
2013-02-14 17:21:00,31.0,14.0,-100.00,SSW,210,6.0,9.0,48,0.00,,,-99.99,,2013-02-15 00:21:00,
2013-02-14 17:32:00,31.0,14.0,-100.00,SW,215,4.0,7.0,48,0.00,,,-99.99,,2013-02-15 00:32:00,
2013-02-14 17:42:00,31.0,14.0,-100.00,SW,225,3.0,7.0,48,0.00,,,-99.99,,2013-02-15 00:42:00,
2013-02-14 17:51:00,31.0,14.0,-100.00,SW,225,4.0,9.0,48,0.00,,,-99.99,,2013-02-15 00:51:00,
2013-02-14 18:02:00,31.0,14.0,-100.00,SW,225,5.0,8.0,48,0.00,,,-99.99,,2013-02-15 01:02:00,
2013-02-14 18:11:00,31.0,14.0,-100.00,SW,215,4.0,8.0,48,0.00,,,-99.99,,2013-02-15 01:11:00,
2013-02-14 18:21:00,31.0,14.0,-100.00,SSW,205,4.0,7.0,48,0.00,,,-99.99,,2013-02-15 01:21:00,
2013-02-14 18:31:00,31.0,13.0,-100.00,SW,235,2.0,7.0,48,0.00,,,-99.99,,2013-02-15 01:31:00,
2013-02-14 18:41:00,30.0,13.0,-100.00,SW,235,1.0,6.0,48,0.00,,,-99.99,,2013-02-15 01:41:00,
2013-02-14 18:51:00,30.0,13.0,-100.00,South,180,2.0,4.0,49,0.00,,,-99.99,,2013-02-15 01:51:00,
2013-02-14 19:01:00,30.0,13.0,-100.00,SW,215,2.0,6.0,49,0.00,,,-99.99,,2013-02-15 02:01:00,
2013-02-14 19:11:00,30.0,13.0,-100.00,SSW,195,1.0,4.0,50,0.00,,,-99.99,,2013-02-15 02:11:00,
2013-02-14 19:21:00,29.0,14.0,-100.00,WSW,245,0.0,1.0,51,0.00,,,-99.99,,2013-02-15 02:21:00,
2013-02-14 19:31:00,29.0,13.0,-100.00,South,185,0.0,0.0,52,0.00,,,-99.99,,2013-02-15 02:31:00,
2013-02-14 19:41:00,28.0,13.0,-100.00,South,190,0.0,0.0,54,0.00,,,-99.99,,2013-02-15 02:41:00,
2013-02-14 19:52:00,27.0,14.0,-100.00,SSW,200,0.0,0.0,56,0.00,,,-99.99,,2013-02-15 02:52:00,
2013-02-14 20:02:00,26.0,13.0,-100.00,South,185,0.0,0.0,58,0.00,,,-99.99,,2013-02-15 03:02:00,
2013-02-14 20:11:00,25.0,14.0,-100.00,South,175,1.0,2.0,60,0.00,,,-99.99,,2013-02-15 03:11:00,
2013-02-14 20:22:00,25.0,14.0,-100.00,SSE,165,0.0,1.0,62,0.00,,,-99.99,,2013-02-15 03:22:00,
2013-02-14 20:32:00,24.0,14.0,-100.00,SSW,195,0.0,2.0,64,0.00,,,-99.99,,2013-02-15 03:32:00,
2013-02-14 20:42:00,24.0,14.0,-100.00,SSE,160,0.0,0.0,65,0.00,,,-99.99,,2013-02-15 03:42:00,
2013-02-14 20:51:00,24.0,15.0,-100.00,South,170,1.0,2.0,67,0.00,,,-99.99,,2013-02-15 03:51:00,
2013-02-14 21:01:00,24.0,15.0,-100.00,South,185,3.0,5.0,68,0.00,,,-99.99,,2013-02-15 04:01:00,
2013-02-14 21:11:00,23.0,15.0,-100.00,South,185,3.0,4.0,69,0.00,,,-99.99,,2013-02-15 04:11:00,
2013-02-14 21:21:00,23.0,15.0,-100.00,South,175,2.0,4.0,70,0.00,,,-99.99,,2013-02-15 04:21:00,
2013-02-14 21:32:00,23.0,15.0,-100.00,South,190,2.0,4.0,70,0.00,,,-99.99,,2013-02-15 04:32:00,
2013-02-14 21:42:00,23.0,15.0,-100.00,SSE,165,6.0,7.0,71,0.00,,,-99.99,,2013-02-15 04:42:00,
2013-02-14 21:51:00,22.0,15.0,-100.00,South,170,4.0,9.0,71,0.00,,,-99.99,,2013-02-15 04:51:00,
2013-02-14 22:02:00,22.0,14.0,-100.00,South,175,6.0,9.0,71,0.00,,,-99.99,,2013-02-15 05:02:00,
2013-02-14 22:12:00,21.0,13.0,-100.00,SSE,155,7.0,9.0,71,0.00,,,-99.99,,2013-02-15 05:12:00,
2013-02-14 22:22:00,21.0,13.0,-100.00,SSE,160,6.0,9.0,71,0.00,,,-99.99,,2013-02-15 05:22:00,
2013-02-14 22:32:00,21.0,13.0,-100.00,South,170,6.0,9.0,71,0.00,,,-99.99,,2013-02-15 05:32:00,
2013-02-14 22:42:00,21.0,13.0,-100.00,SSE,155,4.0,9.0,70,0.00,,,-99.99,,2013-02-15 05:42:00,
2013-02-14 22:52:00,21.0,12.0,-100.00,South,175,5.0,9.0,68,0.00,,,-99.99,,2013-02-15 05:52:00,
2013-02-14 23:02:00,21.0,12.0,-100.00,SSE,155,6.0,9.0,68,0.00,,,-99.99,,2013-02-15 06:02:00,
2013-02-14 23:11:00,21.0,12.0,-100.00,SSE,165,8.0,11.0,68,0.00,,,-99.99,,2013-02-15 06:11:00,
2013-02-14 23:21:00,21.0,12.0,-100.00,South,175,6.0,12.0,67,0.00,,,-99.99,,2013-02-15 06:21:00,
2013-02-14 23:31:00,21.0,11.0,-100.00,SSE,155,6.0,7.0,67,0.00,,,-99.99,,2013-02-15 06:31:00,
2013-02-14 23:42:00,21.0,12.0,-100.00,SSE,165,4.0,7.0,67,0.00,,,-99.99,,2013-02-15 06:42:00,
2013-02-14 23:51:00,21.0,12.0,-100.00,South,170,3.0,7.0,67,0.00,,,-99.99,,2013-02-15 06:51:00,